createdAt,value
2018-12-13T00:00:50.184Z,-0.40
2018-12-13T00:03:19.760Z,-0.40
2018-12-13T00:05:49.405Z,-0.40
2018-12-13T00:08:19.004Z,-0.50
2018-12-13T00:10:48.643Z,-0.50
2018-12-13T00:13:18.332Z,-0.40
2018-12-13T00:15:47.964Z,-0.40
2018-12-13T00:18:17.547Z,-0.30
2018-12-13T00:20:47.168Z,-0.30
2018-12-13T00:23:16.753Z,-0.30
2018-12-13T00:25:46.331Z,-0.30
2018-12-13T00:28:15.911Z,-0.30
2018-12-13T00:30:45.504Z,-0.30
2018-12-13T00:33:15.082Z,-0.30
2018-12-13T00:35:44.730Z,-0.40
2018-12-13T00:38:14.344Z,-0.40
2018-12-13T00:40:44.015Z,-0.50
2018-12-13T00:43:13.660Z,-0.50
2018-12-13T00:45:44.153Z,-0.60
2018-12-13T00:48:13.794Z,-0.60
2018-12-13T00:50:43.528Z,-0.60
2018-12-13T00:53:13.191Z,-0.70
2018-12-13T00:55:42.772Z,-0.70
2018-12-13T00:58:12.396Z,-0.70
2018-12-13T01:00:42.022Z,-0.70
2018-12-13T01:03:11.606Z,-0.80
2018-12-13T01:05:41.243Z,-0.80
2018-12-13T01:08:10.905Z,-0.80
2018-12-13T01:10:40.481Z,-0.80
2018-12-13T01:13:10.108Z,-0.90
2018-12-13T01:15:39.716Z,-0.90
2018-12-13T01:18:09.332Z,-1.00
2018-12-13T01:20:38.928Z,-1.00
2018-12-13T01:23:08.556Z,-1.00
2018-12-13T01:25:38.146Z,-1.10
2018-12-13T01:28:07.773Z,-1.00
2018-12-13T01:30:37.371Z,-0.90
2018-12-13T01:33:06.989Z,-0.90
2018-12-13T01:35:36.576Z,-0.90
2018-12-13T01:38:07.324Z,-1.00
2018-12-13T01:40:36.909Z,-1.00
2018-12-13T01:43:06.615Z,-0.90
2018-12-13T01:45:36.692Z,-0.90
2018-12-13T01:48:06.389Z,-0.80
2018-12-13T01:50:36.001Z,-0.80
2018-12-13T01:53:05.681Z,-0.70
2018-12-13T01:55:35.275Z,-0.70
2018-12-13T01:58:04.911Z,-0.70
2018-12-13T02:00:34.605Z,-0.70
2018-12-13T02:03:04.285Z,-0.70
2018-12-13T02:05:33.913Z,-0.80
2018-12-13T02:08:03.530Z,-0.80
2018-12-13T02:10:33.234Z,-0.90
2018-12-13T02:13:02.923Z,-0.90
2018-12-13T02:15:33.262Z,-0.90
2018-12-13T02:18:02.845Z,-0.90
2018-12-13T02:20:32.462Z,-0.90
2018-12-13T02:23:02.050Z,-1.00
2018-12-13T02:25:31.716Z,-1.00
2018-12-13T02:28:01.308Z,-1.10
2018-12-13T02:30:31.000Z,-1.10
2018-12-13T02:33:00.614Z,-1.20
2018-12-13T02:35:30.245Z,-1.20
2018-12-13T02:37:59.920Z,-1.20
2018-12-13T02:40:29.511Z,-1.20
2018-12-13T02:42:59.100Z,-1.20
2018-12-13T02:45:28.739Z,-1.20
2018-12-13T02:47:58.282Z,-1.20
2018-12-13T02:50:27.893Z,-1.20
2018-12-13T02:52:57.511Z,-1.20
2018-12-13T02:55:27.125Z,-1.20
2018-12-13T02:57:56.807Z,-1.20
2018-12-13T03:00:26.449Z,-1.20
2018-12-13T03:02:56.127Z,-1.20
2018-12-13T03:05:25.755Z,-1.10
2018-12-13T03:07:55.388Z,-1.20
2018-12-13T03:10:25.024Z,-1.20
2018-12-13T03:12:54.659Z,-1.20
2018-12-13T03:15:24.286Z,-1.30
2018-12-13T03:17:53.960Z,-1.30
2018-12-13T03:20:23.595Z,-1.40
2018-12-13T03:22:53.352Z,-1.40
2018-12-13T03:25:22.982Z,-1.50
2018-12-13T03:27:52.709Z,-1.50
2018-12-13T03:30:22.344Z,-1.60
2018-12-13T03:32:52.045Z,-1.60
2018-12-13T03:35:21.689Z,-1.60
2018-12-13T03:37:51.332Z,-1.60
2018-12-13T03:40:20.955Z,-1.50
2018-12-13T03:42:50.757Z,-1.60
2018-12-13T03:45:20.495Z,-1.60
2018-12-13T03:47:50.104Z,-1.60
2018-12-13T03:50:19.733Z,-1.60
2018-12-13T03:52:49.510Z,-1.60
2018-12-13T03:55:19.078Z,-1.60
2018-12-13T03:57:48.674Z,-1.70
2018-12-13T04:00:18.379Z,-1.80
2018-12-13T04:02:48.000Z,-1.80
2018-12-13T04:05:17.623Z,-1.80
2018-12-13T04:07:47.318Z,-1.80
2018-12-13T04:10:16.911Z,-1.80
2018-12-13T04:12:46.503Z,-1.90
2018-12-13T04:15:16.077Z,-1.80
2018-12-13T04:17:45.727Z,-1.80
2018-12-13T04:20:15.307Z,-1.80
2018-12-13T04:22:44.957Z,-1.90
2018-12-13T04:25:14.549Z,-1.80
2018-12-13T04:27:44.235Z,-1.90
2018-12-13T04:30:13.803Z,-1.80
2018-12-13T04:32:43.394Z,-1.80
2018-12-13T04:35:13.073Z,-1.80
2018-12-13T04:37:42.668Z,-1.80
2018-12-13T04:40:12.287Z,-1.80
2018-12-13T04:42:41.875Z,-1.80
2018-12-13T04:45:11.507Z,-1.80
2018-12-13T04:47:41.102Z,-1.80
2018-12-13T04:50:10.850Z,-1.80
2018-12-13T04:52:40.446Z,-1.80
2018-12-13T04:55:10.023Z,-1.80
2018-12-13T04:57:39.640Z,-1.90
2018-12-13T05:00:09.476Z,-1.90
2018-12-13T05:02:39.141Z,-1.90
2018-12-13T05:05:08.713Z,-1.90
2018-12-13T05:07:41.703Z,-2.00
2018-12-13T05:10:12.113Z,-1.90
2018-12-13T05:12:41.716Z,-1.90
2018-12-13T05:15:11.404Z,-1.80
2018-12-13T05:17:41.029Z,-1.90
2018-12-13T05:20:10.686Z,-1.90
2018-12-13T05:22:40.263Z,-1.80
2018-12-13T05:25:09.850Z,-1.80
2018-12-13T05:27:39.460Z,-1.90
2018-12-13T05:30:09.277Z,-1.90
2018-12-13T05:32:38.886Z,-1.90
2018-12-13T05:35:08.711Z,-1.90
2018-12-13T05:37:38.367Z,-1.90
2018-12-13T05:40:08.000Z,-1.90
2018-12-13T05:42:37.568Z,-1.90
2018-12-13T05:45:07.598Z,-1.90
2018-12-13T05:47:37.204Z,-1.90
2018-12-13T05:50:06.883Z,-2.00
2018-12-13T05:52:36.527Z,-2.10
2018-12-13T05:55:06.200Z,-2.10
2018-12-13T05:57:35.820Z,-2.20
2018-12-13T06:00:06.814Z,-2.20
2018-12-13T06:02:36.417Z,-2.10
2018-12-13T06:05:07.715Z,-2.00
2018-12-13T06:07:37.321Z,-2.10
2018-12-13T06:10:07.311Z,-2.10
2018-12-13T06:12:36.913Z,-2.10
2018-12-13T06:15:07.793Z,-2.10
2018-12-13T06:17:37.408Z,-2.00
2018-12-13T06:20:07.261Z,-2.10
2018-12-13T06:22:36.877Z,-2.10
2018-12-13T06:25:06.716Z,-2.10
2018-12-13T06:27:36.330Z,-2.10
2018-12-13T06:30:07.803Z,-2.10
2018-12-13T06:32:37.594Z,-2.10
2018-12-13T06:35:07.706Z,-2.00
2018-12-13T06:37:37.334Z,-2.00
2018-12-13T06:40:07.471Z,-2.00
2018-12-13T06:42:37.095Z,-2.00
2018-12-13T06:45:07.460Z,-2.00
2018-12-13T06:47:37.209Z,-2.10
2018-12-13T06:50:07.115Z,-2.10
2018-12-13T06:52:36.730Z,-2.10
2018-12-13T06:55:06.621Z,-2.20
2018-12-13T06:57:36.240Z,-2.20
2018-12-13T07:00:07.857Z,-2.20
2018-12-13T07:02:37.486Z,-2.20
2018-12-13T07:05:08.040Z,-2.20
2018-12-13T07:07:37.659Z,-2.20
2018-12-13T07:10:07.416Z,-2.20
2018-12-13T07:12:37.057Z,-2.20
2018-12-13T07:15:07.990Z,-2.20
2018-12-13T07:17:37.593Z,-2.30
2018-12-13T07:20:07.293Z,-2.20
2018-12-13T07:22:37.163Z,-2.20
2018-12-13T07:25:07.071Z,-2.20
2018-12-13T07:27:36.677Z,-2.20
2018-12-13T07:30:08.945Z,-2.20
2018-12-13T07:32:38.546Z,-2.10
2018-12-13T07:35:08.758Z,-2.10
2018-12-13T07:37:38.477Z,-2.00
2018-12-13T07:40:09.251Z,-2.00
2018-12-13T07:42:39.123Z,-2.10
2018-12-13T07:45:09.102Z,-2.00
2018-12-13T07:47:38.728Z,-2.00
2018-12-13T07:50:09.128Z,-2.00
2018-12-13T07:52:38.759Z,-1.90
2018-12-13T07:55:08.605Z,-1.90
2018-12-13T07:57:38.217Z,-1.80
2018-12-13T08:00:09.362Z,-1.90
2018-12-13T08:02:39.005Z,-1.80
2018-12-13T08:05:09.344Z,-1.80
2018-12-13T08:07:38.956Z,-1.70
2018-12-13T08:10:08.925Z,-1.70
2018-12-13T08:12:38.550Z,-1.70
2018-12-13T08:15:08.586Z,-1.70
2018-12-13T08:17:38.231Z,-1.70
2018-12-13T08:20:08.124Z,-1.60
2018-12-13T08:22:37.729Z,-1.70
2018-12-13T08:25:07.626Z,-1.60
2018-12-13T08:27:37.238Z,-1.70
2018-12-13T08:30:07.120Z,-1.60
2018-12-13T08:32:36.755Z,-1.70
2018-12-13T08:35:06.697Z,-1.60
2018-12-13T08:37:36.323Z,-1.50
2018-12-13T08:40:06.910Z,-1.40
2018-12-13T08:42:36.562Z,-1.40
2018-12-13T08:45:07.112Z,-1.30
2018-12-13T08:47:36.739Z,-1.30
2018-12-13T08:50:06.437Z,-1.30
2018-12-13T08:52:36.062Z,-1.30
2018-12-13T08:55:05.955Z,-1.20
2018-12-13T08:57:35.615Z,-1.20
2018-12-13T09:00:06.012Z,-1.10
2018-12-13T09:02:35.610Z,-0.90
2018-12-13T09:05:05.782Z,-1.00
2018-12-13T09:07:35.419Z,-1.10
2018-12-13T09:10:06.101Z,-1.00
2018-12-13T09:12:35.805Z,-1.00
2018-12-13T09:15:05.712Z,-1.00
2018-12-13T09:17:35.385Z,-0.90
2018-12-13T09:20:05.970Z,-0.90
2018-12-13T09:22:35.655Z,-0.90
2018-12-13T09:25:05.864Z,-0.80
2018-12-13T09:27:35.476Z,-0.90
2018-12-13T09:30:05.606Z,-0.80
2018-12-13T09:32:35.350Z,-0.80
2018-12-13T09:35:05.971Z,-0.80
2018-12-13T09:37:35.634Z,-0.70
2018-12-13T09:40:06.097Z,-0.60
2018-12-13T09:42:35.671Z,-0.60
2018-12-13T09:45:06.746Z,-0.60
2018-12-13T09:47:36.428Z,-0.60
2018-12-13T09:50:06.879Z,-0.50
2018-12-13T09:52:36.607Z,-0.60
2018-12-13T09:55:06.405Z,-0.40
2018-12-13T09:57:36.621Z,-0.50
2018-12-13T10:00:09.782Z,-0.40
2018-12-13T10:02:39.500Z,-0.40
2018-12-13T10:05:09.252Z,-0.40
2018-12-13T10:07:38.855Z,-0.30
2018-12-13T10:10:08.696Z,-0.30
2018-12-13T10:12:38.502Z,-0.30
2018-12-13T10:15:08.202Z,-0.30
2018-12-13T10:17:37.792Z,-0.40
2018-12-13T10:20:07.563Z,-0.40
2018-12-13T10:22:37.176Z,-0.30
2018-12-13T10:25:07.413Z,-0.20
2018-12-13T10:27:37.037Z,0.00
2018-12-13T10:30:07.242Z,-0.10
2018-12-13T10:32:36.863Z,0.10
2018-12-13T10:35:11.361Z,0.20
2018-12-13T10:37:38.638Z,0.20
2018-12-13T10:40:08.385Z,0.20
2018-12-13T10:42:38.020Z,0.30
2018-12-13T10:45:08.226Z,0.40
2018-12-13T10:47:37.834Z,0.50
2018-12-13T10:50:08.687Z,1.40
2018-12-13T10:52:38.205Z,2.00
2018-12-13T10:55:08.788Z,3.10
2018-12-13T10:57:38.462Z,3.10
2018-12-13T11:00:14.340Z,3.30
2018-12-13T11:03:05.463Z,3.10
2018-12-13T11:05:35.369Z,3.20
2018-12-13T11:08:04.976Z,3.50
2018-12-13T11:10:34.722Z,3.60
2018-12-13T11:13:04.479Z,3.10
2018-12-13T11:15:34.131Z,2.20
2018-12-13T11:18:03.804Z,1.70
2018-12-13T11:20:33.574Z,2.50
2018-12-13T11:23:03.197Z,2.20
2018-12-13T11:25:32.894Z,2.00
2018-12-13T11:29:33.240Z,1.50
2018-12-13T11:32:03.039Z,1.40
2018-12-13T11:34:32.744Z,3.30
2018-12-13T11:37:02.348Z,2.90
2018-12-13T11:39:31.965Z,2.60
2018-12-13T11:42:01.586Z,2.00
2018-12-13T11:44:31.207Z,1.70
2018-12-13T11:47:00.819Z,2.10
2018-12-13T11:49:30.468Z,2.00
2018-12-13T11:52:00.079Z,1.40
2018-12-13T11:54:43.541Z,1.30
2018-12-13T11:57:13.843Z,1.70
2018-12-13T11:59:43.491Z,2.30
2018-12-13T12:02:13.162Z,1.90
2018-12-13T12:04:42.784Z,2.40
2018-12-13T12:07:12.502Z,2.10
2018-12-13T12:09:42.155Z,2.90
2018-12-13T12:12:11.812Z,2.70
2018-12-13T12:14:41.420Z,4.20
2018-12-13T12:17:11.141Z,4.10
2018-12-13T12:19:40.754Z,2.90
2018-12-13T12:22:10.663Z,3.50
2018-12-13T12:24:40.296Z,3.10
2018-12-13T12:27:10.005Z,2.40
2018-12-13T12:29:39.585Z,1.80
2018-12-13T12:32:09.253Z,1.60
2018-12-13T12:34:38.858Z,1.40
2018-12-13T12:37:08.647Z,1.30
2018-12-13T12:39:38.243Z,1.30
2018-12-13T12:42:07.909Z,1.00
2018-12-13T12:44:39.512Z,0.90
2018-12-13T12:47:09.311Z,0.70
2018-12-13T12:49:39.415Z,0.60
2018-12-13T12:52:09.316Z,0.50
2018-12-13T12:54:38.888Z,0.50
2018-12-13T12:57:08.934Z,0.60
2018-12-13T12:59:38.511Z,0.60
2018-12-13T13:02:08.106Z,0.60
2018-12-13T13:04:37.676Z,0.60
2018-12-13T13:07:07.091Z,0.50
2018-12-13T13:09:36.669Z,0.40
2018-12-13T13:12:06.326Z,0.40
2018-12-13T13:14:35.917Z,0.30
2018-12-13T13:17:05.628Z,0.30
2018-12-13T13:19:35.203Z,0.40
2018-12-13T13:22:04.890Z,0.40
2018-12-13T13:24:34.445Z,0.40
2018-12-13T13:27:04.090Z,0.40
2018-12-13T13:29:33.675Z,0.40
2018-12-13T13:32:03.304Z,0.40
2018-12-13T13:34:32.998Z,0.40
2018-12-13T13:37:02.581Z,0.30
2018-12-13T13:39:32.243Z,0.30
2018-12-13T13:42:01.890Z,0.40
2018-12-13T13:44:37.071Z,0.50
2018-12-13T13:47:07.408Z,0.50
2018-12-13T13:49:37.068Z,0.40
2018-12-13T13:52:06.745Z,0.40
2018-12-13T13:54:36.407Z,0.40
2018-12-13T13:57:06.015Z,0.40
2018-12-13T13:59:35.592Z,0.30
2018-12-13T14:02:05.465Z,0.30
2018-12-13T14:04:35.144Z,0.30
2018-12-13T14:07:04.779Z,0.20
2018-12-13T14:09:37.850Z,0.20
2018-12-13T14:12:06.128Z,0.20
2018-12-13T14:14:35.696Z,0.20
2018-12-13T14:17:05.365Z,0.20
2018-12-13T14:19:34.927Z,0.30
2018-12-13T14:22:04.678Z,0.30
2018-12-13T14:24:34.283Z,0.20
2018-12-13T14:27:04.300Z,0.20
2018-12-13T14:29:33.893Z,0.20
2018-12-13T14:32:04.122Z,0.10
2018-12-13T14:34:33.707Z,0.10
2018-12-13T14:37:03.399Z,0.10
2018-12-13T14:39:32.964Z,0.10
2018-12-13T14:42:02.608Z,0.10
2018-12-13T14:44:32.238Z,0.10
2018-12-13T14:47:01.928Z,0.20
2018-12-13T14:49:31.503Z,0.10
2018-12-13T14:52:01.184Z,0.20
2018-12-13T14:54:30.795Z,0.20
2018-12-13T14:57:00.533Z,0.10
2018-12-13T14:59:30.148Z,0.10
2018-12-13T15:01:59.729Z,0.10
2018-12-13T15:04:29.524Z,0.10
2018-12-13T15:07:00.131Z,0.00
2018-12-13T15:09:29.790Z,0.00
2018-12-13T15:11:59.389Z,0.00
2018-12-13T15:14:29.714Z,0.00
2018-12-13T15:16:59.495Z,0.10
2018-12-13T15:19:29.211Z,0.00
2018-12-13T15:21:58.843Z,0.00
2018-12-13T15:24:28.476Z,0.00
2018-12-13T15:26:58.098Z,0.00
2018-12-13T15:29:27.744Z,0.00
2018-12-13T15:31:59.539Z,0.00
2018-12-13T15:34:29.116Z,0.00
2018-12-13T15:36:58.768Z,-0.10
2018-12-13T15:39:28.542Z,-0.10
2018-12-13T15:41:58.158Z,-0.10
2018-12-13T15:44:28.694Z,0.00
2018-12-13T15:46:58.333Z,-0.10
2018-12-13T15:49:28.309Z,-0.10
2018-12-13T15:51:57.933Z,-0.10
2018-12-13T15:54:27.698Z,-0.10
2018-12-13T15:56:57.310Z,-0.10
2018-12-13T15:59:26.984Z,-0.10
2018-12-13T16:01:56.640Z,-0.10
2018-12-13T16:04:26.301Z,-0.10
2018-12-13T16:06:56.126Z,-0.10
2018-12-13T16:09:25.822Z,-0.10
2018-12-13T16:11:55.464Z,-0.20
2018-12-13T16:14:25.135Z,-0.20
2018-12-13T16:16:54.881Z,-0.20
2018-12-13T16:19:24.489Z,-0.10
2018-12-13T16:21:54.218Z,-0.20
2018-12-13T16:24:23.852Z,-0.20
2018-12-13T16:26:53.577Z,-0.20
2018-12-13T16:29:23.205Z,-0.20
2018-12-13T16:31:52.828Z,-0.20
2018-12-13T16:34:23.158Z,-0.20
2018-12-13T16:36:52.915Z,-0.30
2018-12-13T16:39:22.540Z,-0.30
2018-12-13T16:41:52.172Z,-0.30
2018-12-13T16:44:21.793Z,-0.30
2018-12-13T16:46:51.483Z,-0.20
2018-12-13T16:49:21.091Z,-0.20
2018-12-13T16:51:50.827Z,-0.20
2018-12-13T16:54:20.445Z,-0.20
2018-12-13T16:56:50.225Z,-0.20
2018-12-13T16:59:19.945Z,-0.20
2018-12-13T17:01:49.562Z,-0.30
2018-12-13T17:04:19.314Z,-0.30
2018-12-13T17:06:48.925Z,-0.30
2018-12-13T17:09:18.607Z,-0.30
2018-12-13T17:11:48.341Z,-0.30
2018-12-13T17:14:18.006Z,-0.40
2018-12-13T17:16:47.722Z,-0.40
2018-12-13T17:19:17.443Z,-0.30
2018-12-13T17:21:47.072Z,-0.30
2018-12-13T17:24:16.749Z,-0.30
2018-12-13T17:26:46.483Z,-0.30
2018-12-13T17:29:16.163Z,-0.30
2018-12-13T17:31:45.959Z,-0.30
2018-12-13T17:34:15.683Z,-0.30
2018-12-13T17:36:45.319Z,-0.30
2018-12-13T17:39:14.980Z,-0.30
2018-12-13T17:41:44.617Z,-0.30
2018-12-13T17:44:14.290Z,-0.30
2018-12-13T17:46:43.928Z,-0.30
2018-12-13T17:49:13.676Z,-0.30
2018-12-13T17:51:43.286Z,-0.30
2018-12-13T17:55:41.955Z,-0.30
2018-12-13T17:58:11.594Z,-0.40
2018-12-13T18:00:41.214Z,-0.30
2018-12-13T18:03:10.911Z,-0.40
2018-12-13T18:05:40.731Z,-0.40
2018-12-13T18:08:10.565Z,-0.40
2018-12-13T18:10:40.307Z,-0.40
2018-12-13T18:13:09.874Z,-0.40
2018-12-13T18:15:39.640Z,-0.40
2018-12-13T18:18:09.240Z,-0.40
2018-12-13T18:20:38.950Z,-0.40
2018-12-13T18:23:08.675Z,-0.30
2018-12-13T18:25:38.289Z,-0.40
2018-12-13T18:28:08.102Z,-0.40
2018-12-13T18:30:37.730Z,-0.40
2018-12-13T18:33:07.329Z,-0.30
2018-12-13T18:35:36.928Z,-0.30
2018-12-13T18:38:06.523Z,-0.30
2018-12-13T18:40:36.199Z,-0.30
2018-12-13T18:43:05.915Z,-0.30
2018-12-13T18:45:37.443Z,-0.40
2018-12-13T18:48:07.412Z,-0.40
2018-12-13T18:50:37.060Z,-0.40
2018-12-13T18:53:06.654Z,-0.40
2018-12-13T18:55:36.346Z,-0.40
2018-12-13T18:58:05.942Z,-0.40
2018-12-13T19:00:36.368Z,-0.50
2018-12-13T19:03:06.009Z,-0.40
2018-12-13T19:05:35.629Z,-0.50
2018-12-13T19:08:05.362Z,-0.50
2018-12-13T19:10:35.002Z,-0.40
2018-12-13T19:13:04.615Z,-0.50
2018-12-13T19:15:34.184Z,-0.50
2018-12-13T19:18:03.781Z,-0.50
2018-12-13T19:20:33.374Z,-0.50
2018-12-13T19:23:03.050Z,-0.50
2018-12-13T19:25:32.691Z,-0.50
2018-12-13T19:28:02.399Z,-0.50
2018-12-13T19:30:32.001Z,-0.50
2018-12-13T19:33:01.806Z,-0.40
2018-12-13T19:35:31.414Z,-0.40
2018-12-13T19:38:01.071Z,-0.40
2018-12-13T19:40:30.775Z,-0.50
2018-12-13T19:43:00.397Z,-0.50
2018-12-13T19:45:29.976Z,-0.50
2018-12-13T19:47:59.622Z,-0.50
2018-12-13T19:50:29.358Z,-0.50
2018-12-13T19:52:59.048Z,-0.50
2018-12-13T19:55:28.664Z,-0.40
2018-12-13T19:57:58.369Z,-0.40
2018-12-13T20:00:27.989Z,-0.40
2018-12-13T20:02:57.571Z,-0.40
2018-12-13T20:05:27.222Z,-0.40
2018-12-13T20:07:56.812Z,-0.40
2018-12-13T20:10:26.508Z,-0.40
2018-12-13T20:12:56.092Z,-0.40
2018-12-13T20:15:25.717Z,-0.40
2018-12-13T20:17:55.324Z,-0.40
2018-12-13T20:20:25.159Z,-0.40
2018-12-13T20:22:54.743Z,-0.40
2018-12-13T20:25:24.437Z,-0.40
2018-12-13T20:27:54.053Z,-0.40
2018-12-13T20:30:23.629Z,-0.50
2018-12-13T20:32:53.207Z,-0.50
2018-12-13T20:35:23.475Z,-0.50
2018-12-13T20:37:53.055Z,-0.40
2018-12-13T20:40:23.318Z,-0.40
2018-12-13T20:42:52.991Z,-0.40
2018-12-13T20:45:22.974Z,-0.40
2018-12-13T20:47:52.763Z,-0.40
2018-12-13T20:50:22.736Z,-0.40
2018-12-13T20:52:52.709Z,-0.50
2018-12-13T20:55:22.642Z,-0.40
2018-12-13T20:57:52.286Z,-0.40
2018-12-13T21:00:22.074Z,-0.30
2018-12-13T21:02:52.051Z,-0.30
2018-12-13T21:05:21.934Z,-0.30
2018-12-13T21:07:53.775Z,-0.30
2018-12-13T21:10:23.659Z,-0.30
2018-12-13T21:12:53.419Z,-0.40
2018-12-13T21:15:22.991Z,-0.40
2018-12-13T21:17:52.911Z,-0.40
2018-12-13T21:20:22.713Z,-0.30
2018-12-13T21:22:52.361Z,-0.40
2018-12-13T21:25:22.007Z,-0.40
2018-12-13T21:27:52.077Z,-0.40
2018-12-13T21:30:21.860Z,-0.40
2018-12-13T21:32:51.644Z,-0.50
2018-12-13T21:35:21.257Z,-0.50
2018-12-13T21:37:51.031Z,-0.50
2018-12-13T21:40:20.884Z,-0.50
2018-12-13T21:42:50.715Z,-0.60
2018-12-13T21:45:20.488Z,-0.60
2018-12-13T21:47:50.197Z,-0.60
2018-12-13T21:50:20.078Z,-0.60
2018-12-13T21:52:49.727Z,-0.60
2018-12-13T21:55:19.372Z,-0.60
2018-12-13T21:57:49.003Z,-0.70
2018-12-13T22:00:18.657Z,-0.70
2018-12-13T22:02:48.313Z,-0.70
2018-12-13T22:05:17.962Z,-0.60
2018-12-13T22:07:47.863Z,-0.60
2018-12-13T22:10:17.772Z,-0.60
2018-12-13T22:12:47.409Z,-0.60
2018-12-13T22:15:17.153Z,-0.60
2018-12-13T22:17:46.871Z,-0.60
2018-12-13T22:20:16.525Z,-0.60
2018-12-13T22:22:46.179Z,-0.60
2018-12-13T22:25:15.720Z,-0.60
2018-12-13T22:27:45.337Z,-0.60
2018-12-13T22:30:15.061Z,-0.60
2018-12-13T22:32:44.826Z,-0.60
2018-12-13T22:35:14.586Z,-0.60
2018-12-13T22:37:44.667Z,-0.60
2018-12-13T22:40:14.414Z,-0.50
2018-12-13T22:42:44.163Z,-0.50
2018-12-13T22:45:13.941Z,-0.50
2018-12-13T22:47:43.981Z,-0.60
2018-12-13T22:50:13.918Z,-0.50
2018-12-13T22:52:43.676Z,-0.50
2018-12-13T22:55:13.381Z,-0.60
2018-12-13T22:57:43.237Z,-0.60
2018-12-13T23:00:13.299Z,-0.60
2018-12-13T23:02:43.307Z,-0.60
2018-12-13T23:05:13.016Z,-0.60
2018-12-13T23:07:43.149Z,-0.60
2018-12-13T23:10:13.138Z,-0.70
2018-12-13T23:12:42.801Z,-0.70
2018-12-13T23:15:12.883Z,-0.60
2018-12-13T23:17:42.744Z,-0.70
2018-12-13T23:20:13.025Z,-0.70
2018-12-13T23:22:43.367Z,-0.70
2018-12-13T23:25:13.502Z,-0.70
2018-12-13T23:27:43.939Z,-0.60
2018-12-13T23:30:14.649Z,-0.70
2018-12-13T23:32:45.004Z,-0.70
2018-12-13T23:35:15.638Z,-0.60
2018-12-13T23:37:45.925Z,-0.60
2018-12-13T23:40:16.799Z,-0.60
2018-12-13T23:42:47.399Z,-0.60
2018-12-13T23:45:18.350Z,-0.60
2018-12-13T23:47:49.125Z,-0.60
2018-12-13T23:50:19.513Z,-0.60
2018-12-13T23:52:49.115Z,-0.60
2018-12-13T23:55:18.747Z,-0.60
2018-12-13T23:57:48.396Z,-0.60
